< Cyclone 200712 2007 Season Cyclone 200716 >
Cyclone 200713 (KARA)
General InformationDetailed Track InformationTrack Information on Google MapsList of All Images || ResourceGoogle EarthGE AnimationAtom FeedGeoJSON
Detalied Best Track Wind (Time Zone = UTC)
Year Month Day Hour Lat. Long. Wind (kt) Gust (kt) Direc. of Major Storm Axis Radius of Major Storm Axis (nm) Radius of Minor Storm Axis (nm) Direc. of Major Gale Axis Radius of Major Gale Axis (nm) Radius of Minor Gale Axis (nm) Image
2007 3 23 06 -16.1 124.5 15 35 symmetric - - symmetric - - Image
2007 3 23 12 -15.9 123.9 20 45 symmetric - - symmetric - - Image
2007 3 23 18 -15.7 123.1 25 45 symmetric - - symmetric - - Image
2007 3 24 00 -15.9 121.7 25 45 symmetric - - symmetric - - Image
2007 3 24 06 -16.1 120.7 25 45 symmetric - - symmetric - - Image
2007 3 24 12 -16.1 119.3 25 45 symmetric - - symmetric - - Image
2007 3 24 18 -16.2 118.1 25 45 symmetric - - symmetric - - Image
2007 3 25 00 -16.3 117.5 35 45 symmetric - - symmetric - - Image
2007 3 25 06 -16.4 116.8 40 55 symmetric - - symmetric - - Image
2007 3 25 12 -16.5 116.1 50 70 symmetric - - symmetric - - Image
2007 3 25 18 -16.9 115.8 60 85 symmetric - - symmetric - - Image
2007 3 26 00 -17.5 115.4 80 115 symmetric - - symmetric - - Image
2007 3 26 06 -17.9 115.2 100 135 symmetric - - symmetric - - Image
2007 3 26 12 -18.2 115.5 90 125 symmetric - - symmetric - - Image
2007 3 26 18 -18.3 116.1 90 125 symmetric - - symmetric - - Image
2007 3 26 21 -18.3 116.3 95 135 symmetric - - symmetric - - Image
2007 3 27 00 -18.4 116.9 100 140 symmetric - - symmetric - - Image
2007 3 27 03 -18.5 117.4 105 150 symmetric - - symmetric - - Image
2007 3 27 06 -18.6 118.0 100 140 symmetric - - symmetric - - Image
2007 3 27 09 -18.7 118.7 80 115 symmetric - - symmetric - - Image
2007 3 27 12 -18.8 119.4 65 90 symmetric - - symmetric - - Image
2007 3 27 18 -19.3 120.3 50 70 symmetric - - symmetric - - Image
2007 3 28 00 -19.3 121.2 30 45 symmetric - - symmetric - - Image
2007 3 28 06 -18.7 121.3 25 45 symmetric - - symmetric - - Image
2007 3 28 12 -18.2 121.4 25 45 symmetric - - symmetric - - Image
2007 3 28 18 -17.9 121.5 25 45 symmetric - - symmetric - - Image
2007 3 29 00 -17.8 121.4 25 45 symmetric - - symmetric - - Image
2007 3 29 06 -17.8 121.3 25 45 symmetric - - symmetric - - Image
2007 3 29 12 -17.7 120.9 25 45 symmetric - - symmetric - - Image
2007 3 29 18 -17.5 120.5 25 45 symmetric - - symmetric - - Image
2007 3 30 00 -17.4 120.1 25 45 symmetric - - symmetric - - Image
< Cyclone 200712 2007 Season Cyclone 200716 >

Help